createdAt,value
2023-03-30T00:00:56.084Z,5.80
2023-03-30T00:03:23.545Z,5.90
2023-03-30T00:05:51.969Z,5.80
2023-03-30T00:08:19.422Z,5.80
2023-03-30T00:10:47.976Z,5.90
2023-03-30T00:13:15.268Z,5.90
2023-03-30T00:15:42.382Z,5.90
2023-03-30T00:18:09.922Z,5.90
2023-03-30T00:20:37.897Z,5.90
2023-03-30T00:23:05.086Z,5.90
2023-03-30T00:25:32.293Z,5.90
2023-03-30T00:27:59.418Z,5.90
2023-03-30T00:30:26.690Z,5.90
2023-03-30T00:32:54.036Z,6.00
2023-03-30T00:35:21.330Z,6.00
2023-03-30T00:37:49.906Z,6.00
2023-03-30T00:40:20.220Z,6.00
2023-03-30T00:42:48.448Z,6.00
2023-03-30T00:45:20.764Z,6.00
2023-03-30T00:48:01.934Z,6.10
2023-03-30T00:50:36.999Z,6.10
2023-03-30T00:53:10.072Z,6.00
2023-03-30T00:55:39.822Z,6.00
2023-03-30T00:58:10.172Z,6.00
2023-03-30T01:00:39.626Z,6.00
2023-03-30T01:03:15.192Z,6.00
2023-03-30T01:05:44.848Z,6.00
2023-03-30T01:08:14.163Z,6.00
2023-03-30T01:10:41.433Z,6.00
2023-03-30T01:13:08.704Z,6.00
2023-03-30T01:15:42.944Z,6.00
2023-03-30T01:18:19.797Z,6.00
2023-03-30T01:21:10.822Z,6.00
2023-03-30T01:24:16.010Z,6.00
2023-03-30T01:27:05.228Z,5.90
2023-03-30T01:29:57.178Z,5.90
2023-03-30T01:32:46.488Z,5.90
2023-03-30T01:35:38.316Z,5.90
2023-03-30T01:38:17.874Z,5.90
2023-03-30T01:41:07.957Z,5.80
2023-03-30T01:44:24.844Z,5.80
2023-03-30T01:46:59.832Z,5.80
2023-03-30T01:49:53.143Z,5.80
2023-03-30T01:52:24.672Z,5.90
2023-03-30T01:55:02.141Z,5.80
2023-03-30T01:57:41.366Z,5.80
2023-03-30T02:00:14.944Z,5.80
2023-03-30T02:02:48.880Z,5.80
2023-03-30T02:05:19.851Z,5.80
2023-03-30T02:07:53.501Z,5.80
2023-03-30T02:10:25.062Z,5.80
2023-03-30T02:12:54.683Z,5.70
2023-03-30T02:15:23.819Z,5.70
2023-03-30T02:17:51.520Z,5.60
2023-03-30T02:20:19.112Z,5.60
2023-03-30T02:22:46.717Z,5.60
2023-03-30T02:25:14.612Z,5.60
2023-03-30T02:27:42.853Z,5.50
2023-03-30T02:30:10.655Z,5.50
2023-03-30T02:32:57.360Z,5.50
2023-03-30T02:35:38.791Z,5.50
2023-03-30T02:38:30.680Z,5.40
2023-03-30T02:41:34.655Z,5.40
2023-03-30T02:44:37.023Z,5.40
2023-03-30T02:47:07.000Z,5.30
2023-03-30T02:49:59.073Z,5.30
2023-03-30T02:53:07.691Z,5.30
2023-03-30T02:55:54.392Z,5.30
2023-03-30T02:58:38.542Z,5.20
2023-03-30T03:01:14.993Z,5.10
2023-03-30T03:03:55.227Z,5.10
2023-03-30T03:06:23.876Z,5.10
2023-03-30T03:08:55.785Z,5.10
2023-03-30T03:11:27.237Z,5.10
2023-03-30T03:13:55.699Z,5.00
2023-03-30T03:16:24.031Z,5.00
2023-03-30T03:19:11.935Z,5.00
2023-03-30T03:21:40.145Z,5.00
2023-03-30T03:24:08.240Z,5.00
2023-03-30T03:26:55.703Z,5.00
2023-03-30T03:29:23.836Z,5.10
2023-03-30T03:31:51.107Z,5.00
2023-03-30T03:34:20.896Z,5.10
2023-03-30T03:36:58.900Z,5.00
2023-03-30T03:39:28.687Z,5.20
2023-03-30T03:42:05.333Z,5.10
2023-03-30T03:44:34.176Z,5.20
2023-03-30T03:47:01.304Z,5.20
2023-03-30T03:49:28.462Z,5.20
2023-03-30T03:51:55.523Z,4.00
2023-03-30T03:54:22.804Z,5.20
2023-03-30T03:56:52.148Z,5.20
2023-03-30T03:59:19.271Z,5.20
2023-03-30T04:01:48.174Z,5.20
2023-03-30T04:04:15.358Z,5.20
2023-03-30T04:06:42.705Z,5.20
2023-03-30T04:09:09.803Z,5.10
2023-03-30T04:12:00.307Z,5.10
2023-03-30T04:14:58.426Z,5.00
2023-03-30T04:17:47.319Z,4.80
2023-03-30T04:20:32.998Z,4.90
2023-03-30T04:23:23.453Z,5.00
2023-03-30T04:26:09.431Z,5.00
2023-03-30T04:28:47.093Z,4.90
2023-03-30T04:31:47.142Z,5.00
2023-03-30T04:34:21.900Z,5.00
2023-03-30T04:37:04.991Z,5.00
2023-03-30T04:40:09.414Z,5.00
2023-03-30T04:43:04.665Z,5.00
2023-03-30T04:46:03.945Z,5.00
2023-03-30T04:48:34.032Z,5.00
2023-03-30T04:51:10.477Z,5.00
2023-03-30T04:54:03.721Z,5.10
2023-03-30T04:56:59.960Z,5.10
2023-03-30T04:59:45.554Z,5.20
2023-03-30T05:02:42.355Z,5.20
2023-03-30T05:05:29.837Z,5.20
2023-03-30T05:08:19.982Z,5.30
2023-03-30T05:11:07.722Z,5.30
2023-03-30T05:13:52.285Z,5.30
2023-03-30T05:16:38.392Z,5.30
2023-03-30T05:19:05.674Z,5.40
2023-03-30T05:21:47.775Z,5.40
2023-03-30T05:24:26.623Z,5.40
2023-03-30T05:27:12.988Z,5.40
2023-03-30T05:30:09.797Z,5.40
2023-03-30T05:32:43.183Z,5.20
2023-03-30T05:35:34.845Z,5.60
2023-03-30T05:38:24.022Z,5.60
2023-03-30T05:41:09.750Z,5.60
2023-03-30T05:43:57.728Z,5.70
2023-03-30T05:46:38.930Z,5.70
2023-03-30T05:49:38.298Z,5.80
2023-03-30T05:52:13.461Z,5.90
2023-03-30T05:55:07.270Z,5.90
2023-03-30T05:58:04.096Z,6.00
2023-03-30T06:01:05.940Z,6.00
2023-03-30T06:03:39.412Z,6.00
2023-03-30T06:06:09.428Z,6.10
2023-03-30T06:08:37.527Z,6.20
2023-03-30T06:11:06.925Z,6.20
2023-03-30T06:13:44.737Z,6.20
2023-03-30T06:16:12.125Z,6.30
2023-03-30T06:18:39.588Z,6.40
2023-03-30T06:21:11.857Z,6.50
2023-03-30T06:23:58.646Z,6.60
2023-03-30T06:26:28.877Z,6.70
2023-03-30T06:28:56.324Z,6.70
2023-03-30T06:31:23.576Z,6.80
2023-03-30T06:33:58.714Z,6.80
2023-03-30T06:36:45.127Z,7.00
2023-03-30T06:39:14.900Z,7.20
2023-03-30T06:41:43.296Z,7.70
2023-03-30T06:44:30.325Z,7.80
2023-03-30T06:47:01.960Z,7.70
2023-03-30T06:49:31.027Z,7.70
2023-03-30T06:52:17.555Z,7.70
2023-03-30T06:54:45.333Z,7.90
2023-03-30T06:57:12.602Z,8.00
2023-03-30T06:59:39.898Z,7.90
2023-03-30T07:02:22.103Z,7.90
2023-03-30T07:05:09.567Z,8.00
2023-03-30T07:07:55.818Z,8.00
2023-03-30T07:10:23.705Z,8.00
2023-03-30T07:12:51.578Z,8.00
2023-03-30T07:15:20.652Z,8.00
2023-03-30T07:17:48.735Z,8.00
2023-03-30T07:20:16.091Z,7.90
2023-03-30T07:23:03.806Z,7.90
2023-03-30T07:25:31.693Z,7.90
2023-03-30T07:28:06.369Z,7.90
2023-03-30T07:30:35.773Z,8.00
2023-03-30T07:33:06.385Z,8.20
2023-03-30T07:35:33.931Z,8.30
2023-03-30T07:38:05.280Z,8.40
2023-03-30T07:40:36.012Z,8.50
2023-03-30T07:43:04.958Z,8.60
2023-03-30T07:45:32.221Z,8.70
2023-03-30T07:47:59.640Z,8.90
2023-03-30T07:50:26.920Z,8.90
2023-03-30T07:52:57.064Z,9.00
2023-03-30T07:55:25.392Z,9.00
2023-03-30T07:57:59.348Z,9.00
2023-03-30T08:00:26.658Z,9.00
2023-03-30T08:03:15.039Z,9.10
2023-03-30T08:05:42.636Z,9.30
2023-03-30T08:08:20.534Z,9.40
2023-03-30T08:10:48.175Z,9.50
2023-03-30T08:13:15.586Z,9.60
2023-03-30T08:15:43.625Z,9.70
2023-03-30T08:18:13.153Z,9.90
2023-03-30T08:20:42.669Z,9.80
2023-03-30T08:23:11.538Z,9.90
2023-03-30T08:25:38.828Z,9.80
2023-03-30T08:28:06.154Z,9.90
2023-03-30T08:30:33.665Z,10.00
2023-03-30T08:33:01.184Z,10.30
2023-03-30T08:35:29.072Z,10.50
2023-03-30T08:37:56.760Z,10.50
2023-03-30T08:40:24.022Z,10.60
2023-03-30T08:43:28.843Z,10.90
2023-03-30T08:46:00.072Z,10.80
2023-03-30T08:48:31.902Z,10.60
2023-03-30T08:51:02.948Z,10.50
2023-03-30T08:53:33.551Z,10.50
2023-03-30T08:56:20.901Z,10.40
2023-03-30T08:59:05.889Z,10.40
2023-03-30T09:01:48.921Z,10.40
2023-03-30T09:04:42.431Z,10.50
2023-03-30T09:07:18.191Z,10.50
2023-03-30T09:09:49.234Z,10.50
2023-03-30T09:12:51.418Z,10.70
2023-03-30T09:15:57.508Z,10.70
2023-03-30T09:18:32.175Z,10.70
2023-03-30T09:21:02.295Z,10.80
2023-03-30T09:23:32.018Z,11.00
2023-03-30T09:29:01.249Z,11.30
2023-03-30T09:31:33.801Z,11.40
2023-03-30T09:34:08.810Z,11.60
2023-03-30T09:36:44.708Z,11.60
2023-03-30T09:39:19.789Z,11.50
2023-03-30T09:42:09.040Z,11.60
2023-03-30T09:44:40.920Z,11.70
2023-03-30T09:47:23.264Z,11.60
2023-03-30T09:49:56.885Z,11.60
2023-03-30T09:52:27.352Z,11.50
2023-03-30T09:54:54.667Z,11.50
2023-03-30T09:57:40.054Z,11.60
2023-03-30T10:00:29.425Z,11.70
2023-03-30T10:03:02.855Z,11.80
2023-03-30T10:05:32.569Z,11.70
2023-03-30T10:08:03.411Z,11.90
2023-03-30T10:10:36.525Z,12.00
2023-03-30T10:13:08.583Z,12.00
2023-03-30T10:15:39.754Z,12.50
2023-03-30T10:18:30.638Z,13.10
2023-03-30T10:21:08.203Z,13.10
2023-03-30T10:23:41.988Z,12.70
2023-03-30T10:26:20.908Z,12.60
2023-03-30T10:29:11.188Z,12.60
2023-03-30T10:31:42.813Z,12.70
2023-03-30T10:34:28.406Z,12.90
2023-03-30T10:36:55.707Z,12.90
2023-03-30T10:39:32.565Z,12.80
2023-03-30T10:42:05.747Z,12.70
2023-03-30T10:44:36.557Z,12.60
2023-03-30T10:47:41.338Z,12.50
2023-03-30T10:50:16.534Z,12.50
2023-03-30T10:53:06.912Z,12.50
2023-03-30T10:55:49.359Z,12.40
2023-03-30T10:58:26.346Z,12.60
2023-03-30T11:01:28.311Z,12.70
2023-03-30T11:04:16.169Z,12.70
2023-03-30T11:06:53.311Z,12.90
2023-03-30T11:09:30.825Z,13.00
2023-03-30T11:12:16.933Z,13.30
2023-03-30T11:14:52.590Z,13.30
2023-03-30T11:17:41.116Z,13.30
2023-03-30T11:20:31.290Z,13.50
2023-03-30T11:23:10.657Z,13.30
2023-03-30T11:25:49.576Z,13.20
2023-03-30T11:28:48.811Z,13.10
2023-03-30T11:31:34.841Z,12.90
2023-03-30T11:34:24.669Z,13.00
2023-03-30T11:37:01.105Z,13.10
2023-03-30T11:39:34.637Z,13.10
2023-03-30T11:42:16.239Z,12.90
2023-03-30T11:44:43.776Z,12.70
2023-03-30T11:47:38.955Z,12.80
2023-03-30T11:50:24.535Z,12.70
2023-03-30T11:52:51.585Z,12.80
2023-03-30T11:55:42.001Z,12.90
2023-03-30T11:58:16.245Z,13.10
2023-03-30T12:01:01.489Z,13.50
2023-03-30T12:03:42.872Z,13.80
2023-03-30T12:06:29.014Z,14.10
2023-03-30T12:08:59.095Z,14.20
2023-03-30T12:11:39.837Z,14.10
2023-03-30T12:14:26.223Z,14.00
2023-03-30T12:16:57.887Z,14.20
2023-03-30T12:19:48.875Z,14.50
2023-03-30T12:22:52.593Z,14.90
2023-03-30T12:26:13.495Z,14.70
2023-03-30T12:29:11.223Z,14.60
2023-03-30T12:31:54.857Z,14.80
2023-03-30T12:34:27.222Z,14.90
2023-03-30T12:37:04.813Z,15.10
2023-03-30T12:39:50.213Z,15.20
2023-03-30T12:42:27.361Z,15.00
2023-03-30T12:45:13.316Z,14.80
2023-03-30T12:48:04.533Z,14.70
2023-03-30T12:50:54.383Z,14.80
2023-03-30T12:53:39.768Z,14.80
2023-03-30T12:56:26.575Z,14.80
2023-03-30T12:59:18.650Z,14.70
2023-03-30T13:01:54.601Z,14.60
2023-03-30T13:04:24.651Z,14.60
2023-03-30T13:07:02.798Z,14.50
2023-03-30T13:09:55.825Z,14.50
2023-03-30T13:12:42.429Z,14.40
2023-03-30T13:15:34.790Z,14.40
2023-03-30T13:18:29.745Z,14.40
2023-03-30T13:20:56.766Z,14.40
2023-03-30T13:23:25.933Z,14.40
2023-03-30T13:26:04.713Z,14.40
2023-03-30T13:28:55.015Z,14.40
2023-03-30T13:31:30.103Z,14.40
2023-03-30T13:34:06.860Z,14.40
2023-03-30T13:36:40.633Z,14.40
2023-03-30T13:39:29.689Z,14.40
2023-03-30T13:41:59.805Z,14.40
2023-03-30T13:44:42.004Z,14.40
2023-03-30T13:47:40.239Z,14.40
2023-03-30T13:50:24.293Z,14.30
2023-03-30T13:52:55.665Z,14.40
2023-03-30T13:55:33.678Z,14.30
2023-03-30T13:58:17.082Z,14.30
2023-03-30T14:00:49.935Z,14.30
2023-03-30T14:03:39.420Z,14.20
2023-03-30T14:06:23.578Z,14.20
2023-03-30T14:09:05.561Z,14.20
2023-03-30T14:11:41.667Z,14.20
2023-03-30T14:14:15.829Z,14.20
2023-03-30T14:16:43.181Z,14.30
2023-03-30T14:19:19.208Z,14.30
2023-03-30T14:21:47.899Z,14.40
2023-03-30T14:24:32.020Z,14.40
2023-03-30T14:27:14.225Z,14.40
2023-03-30T14:29:50.668Z,14.40
2023-03-30T14:32:23.299Z,14.30
2023-03-30T14:34:52.751Z,14.30
2023-03-30T14:37:22.013Z,14.30
2023-03-30T14:39:53.443Z,14.30
2023-03-30T14:42:21.895Z,14.30
2023-03-30T14:44:51.822Z,14.20
2023-03-30T14:47:22.911Z,14.30
2023-03-30T14:49:54.028Z,14.30
2023-03-30T14:52:33.454Z,14.30
2023-03-30T14:55:06.011Z,14.30
2023-03-30T14:57:39.725Z,14.30
2023-03-30T15:00:21.204Z,14.30
2023-03-30T15:03:02.472Z,14.30
2023-03-30T15:05:47.693Z,14.30
2023-03-30T15:08:21.761Z,14.30
2023-03-30T15:11:20.594Z,14.30
2023-03-30T15:13:52.238Z,14.20
2023-03-30T15:16:27.077Z,14.20
2023-03-30T15:19:02.593Z,14.10
2023-03-30T15:21:33.301Z,14.10
2023-03-30T15:24:01.340Z,14.10
2023-03-30T15:26:29.179Z,14.10
2023-03-30T15:28:58.431Z,14.00
2023-03-30T15:31:28.259Z,14.00
2023-03-30T15:33:59.751Z,13.90
2023-03-30T15:36:38.674Z,13.90
2023-03-30T15:39:33.669Z,13.80
2023-03-30T15:42:06.506Z,13.80
2023-03-30T15:44:39.064Z,13.80
2023-03-30T15:47:19.838Z,13.70
2023-03-30T15:49:51.220Z,13.70
2023-03-30T15:52:32.144Z,13.60
2023-03-30T15:55:14.745Z,13.60
2023-03-30T15:57:44.316Z,13.60
2023-03-30T16:00:19.222Z,13.50
2023-03-30T16:03:00.231Z,13.60
2023-03-30T16:05:30.522Z,13.50
2023-03-30T16:07:58.195Z,13.40
2023-03-30T16:10:28.777Z,13.40
2023-03-30T16:12:58.317Z,13.40
2023-03-30T16:15:28.484Z,13.30
2023-03-30T16:17:55.892Z,13.30
2023-03-30T16:20:25.681Z,13.20
2023-03-30T16:22:52.892Z,13.20
2023-03-30T16:25:26.033Z,13.10
2023-03-30T16:28:01.536Z,13.10
2023-03-30T16:30:35.418Z,13.10
2023-03-30T16:33:04.111Z,13.00
2023-03-30T16:35:31.932Z,12.90
2023-03-30T16:37:59.262Z,12.90
2023-03-30T16:40:26.871Z,12.80
2023-03-30T16:42:54.277Z,12.70
2023-03-30T16:45:22.059Z,12.70
2023-03-30T16:47:50.095Z,12.60
2023-03-30T16:50:23.330Z,12.60
2023-03-30T16:52:51.654Z,12.50
2023-03-30T16:55:19.410Z,11.80
2023-03-30T16:57:46.861Z,12.40
2023-03-30T17:00:27.135Z,12.40
2023-03-30T17:02:55.091Z,12.30
2023-03-30T17:05:22.529Z,12.30
2023-03-30T17:07:55.100Z,12.20
2023-03-30T17:10:29.192Z,12.20
2023-03-30T17:12:56.406Z,12.20
2023-03-30T17:15:27.471Z,12.10
2023-03-30T17:17:56.838Z,12.10
2023-03-30T17:20:36.724Z,12.10
2023-03-30T17:23:04.851Z,12.10
2023-03-30T17:25:36.725Z,12.00
2023-03-30T17:28:05.710Z,11.90
2023-03-30T17:30:36.713Z,12.00
2023-03-30T17:33:04.900Z,12.00
2023-03-30T17:35:32.567Z,11.90
2023-03-30T17:38:00.818Z,11.90
2023-03-30T17:40:31.624Z,11.90
2023-03-30T17:42:59.159Z,11.80
2023-03-30T17:45:30.312Z,11.80
2023-03-30T17:47:58.843Z,11.80
2023-03-30T17:50:35.889Z,11.80
2023-03-30T17:53:03.934Z,11.80
2023-03-30T17:55:33.898Z,11.70
2023-03-30T17:58:02.785Z,11.70
2023-03-30T18:00:34.648Z,11.70
2023-03-30T18:03:02.723Z,11.70
2023-03-30T18:05:33.487Z,11.60
2023-03-30T18:08:01.496Z,11.60
2023-03-30T18:10:36.744Z,11.60
2023-03-30T18:13:05.667Z,11.50
2023-03-30T18:15:34.827Z,11.50
2023-03-30T18:18:02.842Z,11.50
2023-03-30T18:20:38.929Z,11.40
2023-03-30T18:23:07.230Z,11.40
2023-03-30T18:25:35.145Z,11.40
2023-03-30T18:28:03.715Z,11.40
2023-03-30T18:30:42.624Z,11.30
2023-03-30T18:33:11.157Z,11.30
2023-03-30T18:35:39.871Z,11.30
2023-03-30T18:38:08.177Z,11.30
2023-03-30T18:40:42.432Z,11.30
2023-03-30T18:43:12.186Z,11.30
2023-03-30T18:45:48.870Z,11.30
2023-03-30T18:48:19.819Z,11.30
2023-03-30T18:50:50.055Z,11.20
2023-03-30T18:53:27.504Z,11.20
2023-03-30T18:56:01.962Z,11.20
2023-03-30T18:58:34.005Z,11.20
2023-03-30T19:01:04.063Z,11.10
2023-03-30T19:03:33.321Z,11.10
2023-03-30T19:06:01.788Z,11.10
2023-03-30T19:08:29.949Z,11.20
2023-03-30T19:10:59.111Z,11.20
2023-03-30T19:13:31.560Z,11.10
2023-03-30T19:16:04.849Z,11.10
2023-03-30T19:18:33.421Z,11.10
2023-03-30T19:21:01.754Z,11.00
2023-03-30T19:23:30.312Z,11.00
2023-03-30T19:25:59.535Z,11.00
2023-03-30T19:28:27.534Z,11.00
2023-03-30T19:30:55.801Z,11.00
2023-03-30T19:33:23.865Z,11.00
2023-03-30T19:35:52.830Z,11.00
2023-03-30T19:38:20.473Z,11.00
2023-03-30T19:40:48.588Z,10.90
2023-03-30T19:43:17.404Z,10.90
2023-03-30T19:45:51.119Z,10.90
2023-03-30T19:48:20.248Z,10.90
2023-03-30T19:50:51.571Z,10.90
2023-03-30T19:53:19.430Z,10.90
2023-03-30T19:55:49.107Z,10.90
2023-03-30T19:58:17.189Z,10.90
2023-03-30T20:00:50.147Z,10.50
2023-03-30T20:03:19.749Z,10.80
2023-03-30T20:05:50.608Z,10.80
2023-03-30T20:08:24.427Z,10.80
2023-03-30T20:10:53.108Z,10.70
2023-03-30T20:13:24.691Z,10.70
2023-03-30T20:15:56.315Z,10.70
2023-03-30T20:18:23.639Z,10.60
2023-03-30T20:20:51.349Z,10.60
2023-03-30T20:23:18.604Z,10.60
2023-03-30T20:25:50.668Z,10.60
2023-03-30T20:28:18.163Z,10.60
2023-03-30T20:30:45.429Z,10.60
2023-03-30T20:33:12.730Z,10.60
2023-03-30T20:35:40.020Z,10.60
2023-03-30T20:38:08.675Z,10.60
2023-03-30T20:40:36.355Z,10.60
2023-03-30T20:43:03.719Z,10.60
2023-03-30T20:45:31.533Z,10.60
2023-03-30T20:47:59.834Z,10.60
2023-03-30T20:50:27.380Z,10.60
2023-03-30T20:52:54.691Z,10.60
2023-03-30T20:55:21.847Z,10.60
2023-03-30T20:57:48.856Z,10.50
2023-03-30T21:00:16.347Z,10.50
2023-03-30T21:02:43.452Z,10.50
2023-03-30T21:05:10.601Z,10.50
2023-03-30T21:07:38.626Z,10.50
2023-03-30T21:10:06.636Z,10.50
2023-03-30T21:12:33.795Z,10.50
2023-03-30T21:15:00.860Z,10.40
2023-03-30T21:17:27.961Z,10.50
2023-03-30T21:19:55.023Z,10.40
2023-03-30T21:22:22.146Z,10.50
2023-03-30T21:24:49.171Z,10.40
2023-03-30T21:27:16.385Z,10.40
2023-03-30T21:29:43.466Z,10.40
2023-03-30T21:32:10.708Z,10.40
2023-03-30T21:34:37.834Z,10.40
2023-03-30T21:37:04.964Z,10.40
2023-03-30T21:39:32.104Z,10.40
2023-03-30T21:41:59.328Z,10.40
2023-03-30T21:44:26.536Z,10.40
2023-03-30T21:46:53.698Z,10.40
2023-03-30T21:49:21.019Z,10.40
2023-03-30T21:51:48.801Z,10.40
2023-03-30T21:54:16.229Z,10.40
2023-03-30T21:56:43.536Z,10.40
2023-03-30T21:59:10.833Z,10.40
2023-03-30T22:01:41.194Z,10.40
2023-03-30T22:04:08.494Z,10.40
2023-03-30T22:06:35.599Z,10.40
2023-03-30T22:09:03.015Z,10.40
2023-03-30T22:11:30.295Z,10.40
2023-03-30T22:13:57.454Z,10.40
2023-03-30T22:16:28.476Z,10.40
2023-03-30T22:18:55.841Z,10.50
2023-03-30T22:21:25.084Z,10.40
2023-03-30T22:23:54.952Z,10.50
2023-03-30T22:26:22.615Z,10.50
2023-03-30T22:28:49.714Z,10.50
2023-03-30T22:31:17.049Z,10.50
2023-03-30T22:33:44.966Z,10.50
2023-03-30T22:36:20.669Z,10.50
2023-03-30T22:38:49.555Z,10.50
2023-03-30T22:41:18.826Z,10.50
2023-03-30T22:43:46.919Z,10.50
2023-03-30T22:46:14.058Z,10.50
2023-03-30T22:48:41.647Z,10.50
2023-03-30T22:51:09.220Z,10.40
2023-03-30T22:53:36.572Z,10.50
2023-03-30T22:56:04.453Z,10.50
2023-03-30T22:58:31.694Z,10.50
2023-03-30T23:01:02.999Z,10.50
2023-03-30T23:03:30.344Z,10.50
2023-03-30T23:06:01.396Z,10.50
2023-03-30T23:08:31.136Z,10.40
2023-03-30T23:11:05.162Z,10.40
2023-03-30T23:13:38.009Z,10.40
2023-03-30T23:16:06.779Z,10.40
2023-03-30T23:18:34.978Z,10.40
2023-03-30T23:21:07.039Z,10.40
2023-03-30T23:23:38.453Z,10.40
2023-03-30T23:26:10.434Z,10.40
2023-03-30T23:28:39.585Z,10.40
2023-03-30T23:31:12.538Z,10.40
2023-03-30T23:33:40.651Z,10.40
2023-03-30T23:36:09.261Z,10.40
2023-03-30T23:38:37.613Z,10.40
2023-03-30T23:41:06.111Z,10.40
2023-03-30T23:43:33.358Z,10.40
2023-03-30T23:46:00.500Z,10.40
2023-03-30T23:48:27.668Z,10.40
2023-03-30T23:50:56.805Z,10.40
2023-03-30T23:53:25.152Z,10.30
2023-03-30T23:55:52.913Z,10.30
2023-03-30T23:58:20.069Z,10.30
